sensor_id;sensor_type;location;lat;lon;timestamp;temperature;humidity
82506;SHT30;72144;51.444;10.560;2023-10-13T00:00:33;15.79;74.67
82506;SHT30;72144;51.444;10.560;2023-10-13T00:03:05;15.76;74.70
82506;SHT30;72144;51.444;10.560;2023-10-13T00:05:31;15.76;74.70
82506;SHT30;72144;51.444;10.560;2023-10-13T00:08:02;15.74;74.77
82506;SHT30;72144;51.444;10.560;2023-10-13T00:10:28;15.76;74.69
82506;SHT30;72144;51.444;10.560;2023-10-13T00:12:54;15.74;74.64
82506;SHT30;72144;51.444;10.560;2023-10-13T00:15:30;15.73;74.67
82506;SHT30;72144;51.444;10.560;2023-10-13T00:18:04;15.70;74.63
82506;SHT30;72144;51.444;10.560;2023-10-13T00:20:38;15.71;74.54
82506;SHT30;72144;51.444;10.560;2023-10-13T00:23:03;15.70;74.58
82506;SHT30;72144;51.444;10.560;2023-10-13T00:25:29;15.69;74.62
82506;SHT30;72144;51.444;10.560;2023-10-13T00:27:59;15.67;74.63
82506;SHT30;72144;51.444;10.560;2023-10-13T00:30:26;15.67;74.58
82506;SHT30;72144;51.444;10.560;2023-10-13T00:32:57;15.69;74.56
82506;SHT30;72144;51.444;10.560;2023-10-13T00:35:23;15.66;74.62
82506;SHT30;72144;51.444;10.560;2023-10-13T00:38:01;15.65;74.55
82506;SHT30;72144;51.444;10.560;2023-10-13T00:40:31;15.62;74.60
82506;SHT30;72144;51.444;10.560;2023-10-13T00:42:57;15.63;74.58
82506;SHT30;72144;51.444;10.560;2023-10-13T00:45:54;15.62;74.53
82506;SHT30;72144;51.444;10.560;2023-10-13T00:48:40;15.63;74.79
82506;SHT30;72144;51.444;10.560;2023-10-13T00:51:19;15.63;74.57
82506;SHT30;72144;51.444;10.560;2023-10-13T00:54:04;15.63;74.75
82506;SHT30;72144;51.444;10.560;2023-10-13T00:56:38;15.60;74.81
82506;SHT30;72144;51.444;10.560;2023-10-13T00:59:06;15.63;74.92
82506;SHT30;72144;51.444;10.560;2023-10-13T01:01:35;15.62;75.01
82506;SHT30;72144;51.444;10.560;2023-10-13T01:04:02;15.63;75.09
82506;SHT30;72144;51.444;10.560;2023-10-13T01:06:30;15.63;75.12
82506;SHT30;72144;51.444;10.560;2023-10-13T01:09:00;15.66;75.15
82506;SHT30;72144;51.444;10.560;2023-10-13T01:11:25;15.65;75.23
82506;SHT30;72144;51.444;10.560;2023-10-13T01:13:55;15.67;75.30
82506;SHT30;72144;51.444;10.560;2023-10-13T01:16:20;15.66;75.25
82506;SHT30;72144;51.444;10.560;2023-10-13T01:18:49;15.66;75.25
82506;SHT30;72144;51.444;10.560;2023-10-13T01:21:17;15.69;75.30
82506;SHT30;72144;51.444;10.560;2023-10-13T01:23:46;15.66;75.34
82506;SHT30;72144;51.444;10.560;2023-10-13T01:26:13;15.65;75.39
82506;SHT30;72144;51.444;10.560;2023-10-13T01:28:47;15.67;75.31
82506;SHT30;72144;51.444;10.560;2023-10-13T01:31:13;15.66;75.38
82506;SHT30;72144;51.444;10.560;2023-10-13T01:33:50;15.65;75.40
82506;SHT30;72144;51.444;10.560;2023-10-13T01:36:19;15.65;75.44
82506;SHT30;72144;51.444;10.560;2023-10-13T01:38:44;15.65;75.57
82506;SHT30;72144;51.444;10.560;2023-10-13T01:41:12;15.67;75.55
82506;SHT30;72144;51.444;10.560;2023-10-13T01:43:38;15.66;75.61
82506;SHT30;72144;51.444;10.560;2023-10-13T01:46:03;15.65;75.65
82506;SHT30;72144;51.444;10.560;2023-10-13T01:48:29;15.66;75.65
82506;SHT30;72144;51.444;10.560;2023-10-13T01:50:57;15.66;75.68
82506;SHT30;72144;51.444;10.560;2023-10-13T01:53:25;15.66;75.82
82506;SHT30;72144;51.444;10.560;2023-10-13T01:55:54;15.69;75.87
82506;SHT30;72144;51.444;10.560;2023-10-13T01:58:22;15.66;75.91
82506;SHT30;72144;51.444;10.560;2023-10-13T02:00:48;15.67;75.96
82506;SHT30;72144;51.444;10.560;2023-10-13T02:03:14;15.67;75.97
82506;SHT30;72144;51.444;10.560;2023-10-13T02:05:44;15.69;76.03
82506;SHT30;72144;51.444;10.560;2023-10-13T02:08:20;15.70;76.09
82506;SHT30;72144;51.444;10.560;2023-10-13T02:10:53;15.69;76.08
82506;SHT30;72144;51.444;10.560;2023-10-13T02:13:20;15.66;76.08
82506;SHT30;72144;51.444;10.560;2023-10-13T02:15:48;15.67;76.13
82506;SHT30;72144;51.444;10.560;2023-10-13T02:18:18;15.67;76.07
82506;SHT30;72144;51.444;10.560;2023-10-13T02:20:52;15.67;76.13
82506;SHT30;72144;51.444;10.560;2023-10-13T02:23:24;15.66;76.14
82506;SHT30;72144;51.444;10.560;2023-10-13T02:25:50;15.67;76.25
82506;SHT30;72144;51.444;10.560;2023-10-13T02:28:26;15.70;76.30
82506;SHT30;72144;51.444;10.560;2023-10-13T02:30:54;15.69;76.43
82506;SHT30;72144;51.444;10.560;2023-10-13T02:33:19;15.69;76.44
82506;SHT30;72144;51.444;10.560;2023-10-13T02:35:57;15.70;76.51
82506;SHT30;72144;51.444;10.560;2023-10-13T02:38:23;15.70;76.52
82506;SHT30;72144;51.444;10.560;2023-10-13T02:41:09;15.71;76.55
82506;SHT30;72144;51.444;10.560;2023-10-13T02:43:35;15.73;76.55
82506;SHT30;72144;51.444;10.560;2023-10-13T02:46:02;15.74;76.71
82506;SHT30;72144;51.444;10.560;2023-10-13T02:48:29;15.73;76.76
82506;SHT30;72144;51.444;10.560;2023-10-13T02:51:08;15.73;76.79
82506;SHT30;72144;51.444;10.560;2023-10-13T02:53:44;15.76;76.82
82506;SHT30;72144;51.444;10.560;2023-10-13T02:56:13;15.76;76.98
82506;SHT30;72144;51.444;10.560;2023-10-13T02:58:40;15.76;76.98
82506;SHT30;72144;51.444;10.560;2023-10-13T03:01:10;15.80;77.09
82506;SHT30;72144;51.444;10.560;2023-10-13T03:03:49;15.79;77.08
82506;SHT30;72144;51.444;10.560;2023-10-13T03:06:17;15.79;77.16
82506;SHT30;72144;51.444;10.560;2023-10-13T03:08:46;15.80;77.22
82506;SHT30;72144;51.444;10.560;2023-10-13T03:11:12;15.82;77.33
82506;SHT30;72144;51.444;10.560;2023-10-13T03:13:39;15.82;77.35
82506;SHT30;72144;51.444;10.560;2023-10-13T03:16:15;15.83;77.32
82506;SHT30;72144;51.444;10.560;2023-10-13T03:18:42;15.84;77.41
82506;SHT30;72144;51.444;10.560;2023-10-13T03:21:17;15.84;77.49
82506;SHT30;72144;51.444;10.560;2023-10-13T03:23:54;15.83;77.43
82506;SHT30;72144;51.444;10.560;2023-10-13T03:26:20;15.83;77.44
82506;SHT30;72144;51.444;10.560;2023-10-13T03:28:46;15.84;77.43
82506;SHT30;72144;51.444;10.560;2023-10-13T03:31:20;15.89;77.44
82506;SHT30;72144;51.444;10.560;2023-10-13T03:33:48;15.87;77.51
82506;SHT30;72144;51.444;10.560;2023-10-13T03:36:14;15.87;77.58
82506;SHT30;72144;51.444;10.560;2023-10-13T03:38:59;15.86;77.61
82506;SHT30;72144;51.444;10.560;2023-10-13T03:41:24;15.91;77.58
82506;SHT30;72144;51.444;10.560;2023-10-13T03:43:55;15.90;77.61
82506;SHT30;72144;51.444;10.560;2023-10-13T03:46:34;15.90;77.63
82506;SHT30;72144;51.444;10.560;2023-10-13T03:49:01;15.90;77.69
82506;SHT30;72144;51.444;10.560;2023-10-13T03:51:27;15.91;77.77
82506;SHT30;72144;51.444;10.560;2023-10-13T03:53:58;15.91;77.80
82506;SHT30;72144;51.444;10.560;2023-10-13T03:56:25;15.91;77.61
82506;SHT30;72144;51.444;10.560;2023-10-13T03:58:56;15.89;77.73
82506;SHT30;72144;51.444;10.560;2023-10-13T04:01:40;15.90;77.79
82506;SHT30;72144;51.444;10.560;2023-10-13T04:04:11;15.91;77.86
82506;SHT30;72144;51.444;10.560;2023-10-13T04:06:43;15.91;77.88
82506;SHT30;72144;51.444;10.560;2023-10-13T04:09:18;15.91;77.83
82506;SHT30;72144;51.444;10.560;2023-10-13T04:11:59;15.93;77.92
82506;SHT30;72144;51.444;10.560;2023-10-13T04:17:13;15.93;77.98
82506;SHT30;72144;51.444;10.560;2023-10-13T04:19:49;15.93;77.95
82506;SHT30;72144;51.444;10.560;2023-10-13T04:22:38;15.96;77.85
82506;SHT30;72144;51.444;10.560;2023-10-13T04:25:26;15.94;78.08
82506;SHT30;72144;51.444;10.560;2023-10-13T04:28:24;15.96;78.00
82506;SHT30;72144;51.444;10.560;2023-10-13T04:31:16;15.96;78.10
82506;SHT30;72144;51.444;10.560;2023-10-13T04:34:01;15.98;78.16
82506;SHT30;72144;51.444;10.560;2023-10-13T04:36:29;16.00;78.20
82506;SHT30;72144;51.444;10.560;2023-10-13T04:38:55;16.00;78.35
82506;SHT30;72144;51.444;10.560;2023-10-13T04:41:37;16.00;78.27
82506;SHT30;72144;51.444;10.560;2023-10-13T04:44:16;16.00;78.29
82506;SHT30;72144;51.444;10.560;2023-10-13T04:47:01;16.02;78.37
82506;SHT30;72144;51.444;10.560;2023-10-13T04:49:27;16.01;78.52
82506;SHT30;72144;51.444;10.560;2023-10-13T04:51:57;16.04;78.66
82506;SHT30;72144;51.444;10.560;2023-10-13T04:57:17;16.02;78.60
82506;SHT30;72144;51.444;10.560;2023-10-13T05:00:04;16.05;78.73
82506;SHT30;72144;51.444;10.560;2023-10-13T05:02:55;16.08;78.67
82506;SHT30;72144;51.444;10.560;2023-10-13T05:05:42;16.11;78.76
82506;SHT30;72144;51.444;10.560;2023-10-13T05:08:17;16.11;78.74
82506;SHT30;72144;51.444;10.560;2023-10-13T05:11:05;16.11;78.72
82506;SHT30;72144;51.444;10.560;2023-10-13T05:13:49;16.11;78.71
82506;SHT30;72144;51.444;10.560;2023-10-13T05:16:33;16.12;78.82
82506;SHT30;72144;51.444;10.560;2023-10-13T05:19:17;16.15;78.79
82506;SHT30;72144;51.444;10.560;2023-10-13T05:22:02;16.15;78.87
82506;SHT30;72144;51.444;10.560;2023-10-13T05:24:46;16.15;78.86
82506;SHT30;72144;51.444;10.560;2023-10-13T05:27:29;16.15;78.80
82506;SHT30;72144;51.444;10.560;2023-10-13T05:30:13;16.17;78.87
82506;SHT30;72144;51.444;10.560;2023-10-13T05:32:57;16.18;78.89
82506;SHT30;72144;51.444;10.560;2023-10-13T05:35:41;16.19;78.93
82506;SHT30;72144;51.444;10.560;2023-10-13T05:38:25;16.21;78.93
82506;SHT30;72144;51.444;10.560;2023-10-13T05:41:09;16.19;78.93
82506;SHT30;72144;51.444;10.560;2023-10-13T05:43:53;16.21;78.90
82506;SHT30;72144;51.444;10.560;2023-10-13T05:46:37;16.21;78.80
82506;SHT30;72144;51.444;10.560;2023-10-13T05:49:04;16.21;78.91
82506;SHT30;72144;51.444;10.560;2023-10-13T05:51:43;16.24;78.85
82506;SHT30;72144;51.444;10.560;2023-10-13T05:54:31;16.25;79.00
82506;SHT30;72144;51.444;10.560;2023-10-13T05:57:16;16.24;78.97
82506;SHT30;72144;51.444;10.560;2023-10-13T05:59:59;16.24;79.01
82506;SHT30;72144;51.444;10.560;2023-10-13T06:02:43;16.24;78.99
82506;SHT30;72144;51.444;10.560;2023-10-13T06:05:27;16.26;79.05
82506;SHT30;72144;51.444;10.560;2023-10-13T06:08:11;16.29;78.98
82506;SHT30;72144;51.444;10.560;2023-10-13T06:11:02;16.28;79.05
82506;SHT30;72144;51.444;10.560;2023-10-13T06:13:47;16.28;78.91
82506;SHT30;72144;51.444;10.560;2023-10-13T06:16:31;16.30;78.94
82506;SHT30;72144;51.444;10.560;2023-10-13T06:19:15;16.32;78.89
82506;SHT30;72144;51.444;10.560;2023-10-13T06:21:59;16.32;78.65
82506;SHT30;72144;51.444;10.560;2023-10-13T06:24:44;16.36;78.67
82506;SHT30;72144;51.444;10.560;2023-10-13T06:27:28;16.33;78.56
82506;SHT30;72144;51.444;10.560;2023-10-13T06:30:12;16.36;78.55
82506;SHT30;72144;51.444;10.560;2023-10-13T06:32:37;16.38;78.34
82506;SHT30;72144;51.444;10.560;2023-10-13T06:35:05;16.42;78.32
82506;SHT30;72144;51.444;10.560;2023-10-13T06:37:43;16.42;78.28
82506;SHT30;72144;51.444;10.560;2023-10-13T06:40:09;16.42;78.11
82506;SHT30;72144;51.444;10.560;2023-10-13T06:42:54;16.43;78.04
82506;SHT30;72144;51.444;10.560;2023-10-13T06:45:20;16.43;77.95
82506;SHT30;72144;51.444;10.560;2023-10-13T06:47:47;16.48;77.91
82506;SHT30;72144;51.444;10.560;2023-10-13T06:50:17;16.48;77.76
82506;SHT30;72144;51.444;10.560;2023-10-13T06:52:49;16.48;77.72
82506;SHT30;72144;51.444;10.560;2023-10-13T06:55:20;16.51;77.62
82506;SHT30;72144;51.444;10.560;2023-10-13T06:58:00;16.52;77.61
82506;SHT30;72144;51.444;10.560;2023-10-13T07:00:26;16.53;77.47
82506;SHT30;72144;51.444;10.560;2023-10-13T07:02:59;16.53;77.54
82506;SHT30;72144;51.444;10.560;2023-10-13T07:05:38;16.52;77.39
82506;SHT30;72144;51.444;10.560;2023-10-13T07:08:07;16.56;77.42
82506;SHT30;72144;51.444;10.560;2023-10-13T07:10:35;16.56;77.34
82506;SHT30;72144;51.444;10.560;2023-10-13T07:13:13;16.59;77.34
82506;SHT30;72144;51.444;10.560;2023-10-13T07:15:40;16.60;77.36
82506;SHT30;72144;51.444;10.560;2023-10-13T07:18:13;16.60;77.31
82506;SHT30;72144;51.444;10.560;2023-10-13T07:20:41;16.60;77.27
82506;SHT30;72144;51.444;10.560;2023-10-13T07:23:11;16.62;77.27
82506;SHT30;72144;51.444;10.560;2023-10-13T07:25:53;16.60;77.26
82506;SHT30;72144;51.444;10.560;2023-10-13T07:28:28;16.64;77.21
82506;SHT30;72144;51.444;10.560;2023-10-13T07:30:56;16.66;77.18
82506;SHT30;72144;51.444;10.560;2023-10-13T07:33:21;16.66;77.16
82506;SHT30;72144;51.444;10.560;2023-10-13T07:35:48;16.69;77.05
82506;SHT30;72144;51.444;10.560;2023-10-13T07:38:17;16.70;77.03
82506;SHT30;72144;51.444;10.560;2023-10-13T07:40:43;16.71;76.85
82506;SHT30;72144;51.444;10.560;2023-10-13T07:43:18;16.73;76.66
82506;SHT30;72144;51.444;10.560;2023-10-13T07:45:47;16.73;76.59
82506;SHT30;72144;51.444;10.560;2023-10-13T07:48:23;16.76;76.48
82506;SHT30;72144;51.444;10.560;2023-10-13T07:51:02;16.79;76.55
82506;SHT30;72144;51.444;10.560;2023-10-13T07:53:29;16.77;76.36
82506;SHT30;72144;51.444;10.560;2023-10-13T07:56:02;16.79;76.37
82506;SHT30;72144;51.444;10.560;2023-10-13T07:58:30;16.81;76.40
82506;SHT30;72144;51.444;10.560;2023-10-13T08:00:56;16.80;76.47
82506;SHT30;72144;51.444;10.560;2023-10-13T08:03:35;16.83;76.44
82506;SHT30;72144;51.444;10.560;2023-10-13T08:06:09;16.85;76.44
82506;SHT30;72144;51.444;10.560;2023-10-13T08:08:35;16.84;76.45
82506;SHT30;72144;51.444;10.560;2023-10-13T08:11:10;16.84;76.50
82506;SHT30;72144;51.444;10.560;2023-10-13T08:16:59;16.90;76.22
82506;SHT30;72144;51.444;10.560;2023-10-13T08:19:26;16.88;76.29
82506;SHT30;72144;51.444;10.560;2023-10-13T08:21:53;16.94;76.25
82506;SHT30;72144;51.444;10.560;2023-10-13T08:24:27;16.94;76.23
82506;SHT30;72144;51.444;10.560;2023-10-13T08:27:02;16.92;76.17
82506;SHT30;72144;51.444;10.560;2023-10-13T08:29:45;16.95;76.16
82506;SHT30;72144;51.444;10.560;2023-10-13T08:32:19;16.95;76.11
82506;SHT30;72144;51.444;10.560;2023-10-13T08:34:47;16.97;76.14
82506;SHT30;72144;51.444;10.560;2023-10-13T08:37:13;16.97;76.14
82506;SHT30;72144;51.444;10.560;2023-10-13T08:42:28;17.01;76.13
82506;SHT30;72144;51.444;10.560;2023-10-13T08:47:55;17.04;75.96
82506;SHT30;72144;51.444;10.560;2023-10-13T08:50:34;17.05;75.95
82506;SHT30;72144;51.444;10.560;2023-10-13T08:53:19;17.05;75.92
82506;SHT30;72144;51.444;10.560;2023-10-13T08:56:01;17.10;75.97
82506;SHT30;72144;51.444;10.560;2023-10-13T08:58:42;17.08;75.93
82506;SHT30;72144;51.444;10.560;2023-10-13T09:01:30;17.10;76.09
82506;SHT30;72144;51.444;10.560;2023-10-13T09:04:19;17.11;75.83
82506;SHT30;72144;51.444;10.560;2023-10-13T09:06:55;17.14;75.88
82506;SHT30;72144;51.444;10.560;2023-10-13T09:14:52;17.16;76.00
82506;SHT30;72144;51.444;10.560;2023-10-13T09:17:25;17.18;76.00
82506;SHT30;72144;51.444;10.560;2023-10-13T09:22:46;17.19;75.77
82506;SHT30;72144;51.444;10.560;2023-10-13T09:25:22;17.19;75.89
82506;SHT30;72144;51.444;10.560;2023-10-13T09:27:49;17.24;75.90
82506;SHT30;72144;51.444;10.560;2023-10-13T09:30:20;17.26;75.90
82506;SHT30;72144;51.444;10.560;2023-10-13T09:32:58;17.28;75.76
82506;SHT30;72144;51.444;10.560;2023-10-13T09:35:26;17.31;75.81
82506;SHT30;72144;51.444;10.560;2023-10-13T09:37:53;17.33;75.84
82506;SHT30;72144;51.444;10.560;2023-10-13T09:40:22;17.33;75.77
82506;SHT30;72144;51.444;10.560;2023-10-13T09:42:55;17.40;75.89
82506;SHT30;72144;51.444;10.560;2023-10-13T09:45:28;17.43;75.79
82506;SHT30;72144;51.444;10.560;2023-10-13T09:48:02;17.47;75.83
82506;SHT30;72144;51.444;10.560;2023-10-13T09:50:37;17.56;75.86
82506;SHT30;72144;51.444;10.560;2023-10-13T09:53:04;17.56;75.81
82506;SHT30;72144;51.444;10.560;2023-10-13T09:55:41;17.66;75.85
82506;SHT30;72144;51.444;10.560;2023-10-13T09:58:11;17.69;75.49
82506;SHT30;72144;51.444;10.560;2023-10-13T10:00:48;17.76;75.79
82506;SHT30;72144;51.444;10.560;2023-10-13T10:03:23;17.77;75.42
82506;SHT30;72144;51.444;10.560;2023-10-13T10:06:02;17.83;75.21
82506;SHT30;72144;51.444;10.560;2023-10-13T10:08:42;17.87;75.07
82506;SHT30;72144;51.444;10.560;2023-10-13T10:16:37;17.98;75.44
82506;SHT30;72144;51.444;10.560;2023-10-13T10:19:02;18.04;75.03
82506;SHT30;72144;51.444;10.560;2023-10-13T10:21:37;18.12;75.34
82506;SHT30;72144;51.444;10.560;2023-10-13T10:24:16;18.14;75.70
82506;SHT30;72144;51.444;10.560;2023-10-13T10:27:02;18.21;75.00
82506;SHT30;72144;51.444;10.560;2023-10-13T10:29:29;18.26;74.97
82506;SHT30;72144;51.444;10.560;2023-10-13T10:31:57;18.32;75.18
82506;SHT30;72144;51.444;10.560;2023-10-13T10:34:30;18.35;76.01
82506;SHT30;72144;51.444;10.560;2023-10-13T10:36:57;18.42;75.31
82506;SHT30;72144;51.444;10.560;2023-10-13T10:39:36;18.49;75.63
82506;SHT30;72144;51.444;10.560;2023-10-13T10:42:12;18.56;75.26
82506;SHT30;72144;51.444;10.560;2023-10-13T10:44:41;18.59;75.31
82506;SHT30;72144;51.444;10.560;2023-10-13T10:47:14;18.66;75.20
82506;SHT30;72144;51.444;10.560;2023-10-13T10:50:02;18.73;75.03
82506;SHT30;72144;51.444;10.560;2023-10-13T10:52:45;18.80;74.73
82506;SHT30;72144;51.444;10.560;2023-10-13T10:55:12;18.83;74.85
82506;SHT30;72144;51.444;10.560;2023-10-13T10:57:40;18.91;75.70
82506;SHT30;72144;51.444;10.560;2023-10-13T11:00:21;18.98;75.22
82506;SHT30;72144;51.444;10.560;2023-10-13T11:02:57;19.08;75.17
82506;SHT30;72144;51.444;10.560;2023-10-13T11:05:23;19.15;75.41
82506;SHT30;72144;51.444;10.560;2023-10-13T11:07:57;19.25;75.27
82506;SHT30;72144;51.444;10.560;2023-10-13T11:10:23;19.33;75.37
82506;SHT30;72144;51.444;10.560;2023-10-13T11:12:57;19.39;75.16
82506;SHT30;72144;51.444;10.560;2023-10-13T11:15:47;19.47;75.04
82506;SHT30;72144;51.444;10.560;2023-10-13T11:18:14;19.54;74.92
82506;SHT30;72144;51.444;10.560;2023-10-13T11:20:49;19.57;74.81
82506;SHT30;72144;51.444;10.560;2023-10-13T11:23:20;19.63;74.90
82506;SHT30;72144;51.444;10.560;2023-10-13T11:26:00;19.66;75.06
82506;SHT30;72144;51.444;10.560;2023-10-13T11:28:25;19.70;74.54
82506;SHT30;72144;51.444;10.560;2023-10-13T11:30:58;19.74;74.65
82506;SHT30;72144;51.444;10.560;2023-10-13T11:33:36;19.75;74.31
82506;SHT30;72144;51.444;10.560;2023-10-13T11:36:01;19.75;74.36
82506;SHT30;72144;51.444;10.560;2023-10-13T11:38:33;19.78;74.42
82506;SHT30;72144;51.444;10.560;2023-10-13T11:41:15;19.81;74.11
82506;SHT30;72144;51.444;10.560;2023-10-13T11:43:50;19.82;74.33
82506;SHT30;72144;51.444;10.560;2023-10-13T11:46:17;19.85;74.60
82506;SHT30;72144;51.444;10.560;2023-10-13T11:49:04;19.87;74.11
82506;SHT30;72144;51.444;10.560;2023-10-13T11:51:42;19.92;73.94
82506;SHT30;72144;51.444;10.560;2023-10-13T11:54:20;19.92;74.07
82506;SHT30;72144;51.444;10.560;2023-10-13T11:56:48;19.97;73.73
82506;SHT30;72144;51.444;10.560;2023-10-13T11:59:14;19.97;73.77
82506;SHT30;72144;51.444;10.560;2023-10-13T12:01:49;19.98;73.93
82506;SHT30;72144;51.444;10.560;2023-10-13T12:04:33;19.99;73.52
82506;SHT30;72144;51.444;10.560;2023-10-13T12:07:19;20.07;73.66
82506;SHT30;72144;51.444;10.560;2023-10-13T12:09:47;20.04;73.54
82506;SHT30;72144;51.444;10.560;2023-10-13T12:12:22;20.09;73.47
82506;SHT30;72144;51.444;10.560;2023-10-13T12:14:47;20.11;73.58
82506;SHT30;72144;51.444;10.560;2023-10-13T12:19:57;20.16;73.33
82506;SHT30;72144;51.444;10.560;2023-10-13T12:22:22;20.19;73.31
82506;SHT30;72144;51.444;10.560;2023-10-13T12:25:00;20.22;73.15
82506;SHT30;72144;51.444;10.560;2023-10-13T12:27:29;20.22;73.03
82506;SHT30;72144;51.444;10.560;2023-10-13T12:30:11;20.26;72.94
82506;SHT30;72144;51.444;10.560;2023-10-13T12:32:42;20.29;72.86
82506;SHT30;72144;51.444;10.560;2023-10-13T12:35:19;20.30;73.02
82506;SHT30;72144;51.444;10.560;2023-10-13T12:38:01;20.35;72.97
82506;SHT30;72144;51.444;10.560;2023-10-13T12:40:42;20.35;72.94
82506;SHT30;72144;51.444;10.560;2023-10-13T12:43:26;20.37;73.02
82506;SHT30;72144;51.444;10.560;2023-10-13T12:46:10;20.42;72.90
82506;SHT30;72144;51.444;10.560;2023-10-13T12:48:54;20.43;72.75
82506;SHT30;72144;51.444;10.560;2023-10-13T12:51:38;20.49;72.86
82506;SHT30;72144;51.444;10.560;2023-10-13T12:54:04;20.46;72.79
82506;SHT30;72144;51.444;10.560;2023-10-13T12:56:42;20.50;72.80
82506;SHT30;72144;51.444;10.560;2023-10-13T12:59:10;20.52;72.77
82506;SHT30;72144;51.444;10.560;2023-10-13T13:01:39;20.53;72.63
82506;SHT30;72144;51.444;10.560;2023-10-13T13:04:08;20.54;72.58
82506;SHT30;72144;51.444;10.560;2023-10-13T13:06:43;20.56;72.49
82506;SHT30;72144;51.444;10.560;2023-10-13T13:09:09;20.59;72.47
82506;SHT30;72144;51.444;10.560;2023-10-13T13:11:35;20.56;72.62
82506;SHT30;72144;51.444;10.560;2023-10-13T13:14:05;20.57;72.63
82506;SHT30;72144;51.444;10.560;2023-10-13T13:16:33;20.59;72.55
82506;SHT30;72144;51.444;10.560;2023-10-13T13:18:59;20.57;72.40
82506;SHT30;72144;51.444;10.560;2023-10-13T13:21:24;20.60;72.37
82506;SHT30;72144;51.444;10.560;2023-10-13T13:23:50;20.61;72.37
82506;SHT30;72144;51.444;10.560;2023-10-13T13:26:16;20.60;72.29
82506;SHT30;72144;51.444;10.560;2023-10-13T13:28:43;20.60;72.15
82506;SHT30;72144;51.444;10.560;2023-10-13T13:31:09;20.63;72.16
82506;SHT30;72144;51.444;10.560;2023-10-13T13:33:34;20.61;72.06
82506;SHT30;72144;51.444;10.560;2023-10-13T13:36:07;20.63;72.05
82506;SHT30;72144;51.444;10.560;2023-10-13T13:38:32;20.63;72.02
82506;SHT30;72144;51.444;10.560;2023-10-13T13:40:59;20.61;72.00
82506;SHT30;72144;51.444;10.560;2023-10-13T13:43:27;20.64;71.98
82506;SHT30;72144;51.444;10.560;2023-10-13T13:46:09;20.64;72.00
82506;SHT30;72144;51.444;10.560;2023-10-13T13:48:39;20.66;72.05
82506;SHT30;72144;51.444;10.560;2023-10-13T13:51:06;20.68;71.95
82506;SHT30;72144;51.444;10.560;2023-10-13T13:53:38;20.68;71.98
82506;SHT30;72144;51.444;10.560;2023-10-13T13:56:08;20.70;72.02
82506;SHT30;72144;51.444;10.560;2023-10-13T13:58:35;20.74;71.93
82506;SHT30;72144;51.444;10.560;2023-10-13T14:01:03;20.76;71.92
82506;SHT30;72144;51.444;10.560;2023-10-13T14:03:44;20.78;71.71
82506;SHT30;72144;51.444;10.560;2023-10-13T14:06:13;20.84;71.54
82506;SHT30;72144;51.444;10.560;2023-10-13T14:08:47;20.85;71.50
82506;SHT30;72144;51.444;10.560;2023-10-13T14:11:23;20.87;71.52
82506;SHT30;72144;51.444;10.560;2023-10-13T14:14:14;20.87;71.38
82506;SHT30;72144;51.444;10.560;2023-10-13T14:16:52;20.88;71.34
82506;SHT30;72144;51.444;10.560;2023-10-13T14:19:19;20.90;71.27
82506;SHT30;72144;51.444;10.560;2023-10-13T14:21:59;20.92;71.18
82506;SHT30;72144;51.444;10.560;2023-10-13T14:24:25;20.94;71.25
82506;SHT30;72144;51.444;10.560;2023-10-13T14:26:59;20.91;71.19
82506;SHT30;72144;51.444;10.560;2023-10-13T14:29:35;20.91;71.14
82506;SHT30;72144;51.444;10.560;2023-10-13T14:32:09;20.92;71.17
82506;SHT30;72144;51.444;10.560;2023-10-13T14:34:40;20.94;71.10
82506;SHT30;72144;51.444;10.560;2023-10-13T14:37:06;20.94;71.02
82506;SHT30;72144;51.444;10.560;2023-10-13T14:39:32;20.90;71.06
82506;SHT30;72144;51.444;10.560;2023-10-13T14:42:03;20.91;70.97
82506;SHT30;72144;51.444;10.560;2023-10-13T14:44:31;20.94;70.91
82506;SHT30;72144;51.444;10.560;2023-10-13T14:46:57;20.92;70.88
82506;SHT30;72144;51.444;10.560;2023-10-13T14:49:22;20.94;70.94
82506;SHT30;72144;51.444;10.560;2023-10-13T14:51:48;20.94;70.89
82506;SHT30;72144;51.444;10.560;2023-10-13T14:54:15;20.94;70.80
82506;SHT30;72144;51.444;10.560;2023-10-13T14:56:40;20.94;70.84
82506;SHT30;72144;51.444;10.560;2023-10-13T14:59:08;20.95;70.77
82506;SHT30;72144;51.444;10.560;2023-10-13T15:01:40;20.94;70.79
82506;SHT30;72144;51.444;10.560;2023-10-13T15:04:05;20.95;70.70
82506;SHT30;72144;51.444;10.560;2023-10-13T15:06:31;20.94;70.73
82506;SHT30;72144;51.444;10.560;2023-10-13T15:08:58;20.92;70.69
82506;SHT30;72144;51.444;10.560;2023-10-13T15:11:25;20.92;70.67
82506;SHT30;72144;51.444;10.560;2023-10-13T15:14:11;20.92;70.75
82506;SHT30;72144;51.444;10.560;2023-10-13T15:16:38;20.94;70.72
82506;SHT30;72144;51.444;10.560;2023-10-13T15:19:04;20.95;70.77
82506;SHT30;72144;51.444;10.560;2023-10-13T15:21:30;20.94;70.73
82506;SHT30;72144;51.444;10.560;2023-10-13T15:24:06;20.94;70.62
82506;SHT30;72144;51.444;10.560;2023-10-13T15:26:47;20.92;70.63
82506;SHT30;72144;51.444;10.560;2023-10-13T15:29:17;20.94;70.67
82506;SHT30;72144;51.444;10.560;2023-10-13T15:31:43;20.94;70.66
82506;SHT30;72144;51.444;10.560;2023-10-13T15:34:29;20.91;70.61
82506;SHT30;72144;51.444;10.560;2023-10-13T15:36:56;20.90;70.62
82506;SHT30;72144;51.444;10.560;2023-10-13T15:39:22;20.90;70.60
82506;SHT30;72144;51.444;10.560;2023-10-13T15:41:56;20.90;70.52
82506;SHT30;72144;51.444;10.560;2023-10-13T15:44:26;20.90;70.46
82506;SHT30;72144;51.444;10.560;2023-10-13T15:46:56;20.85;70.46
82506;SHT30;72144;51.444;10.560;2023-10-13T15:49:22;20.87;70.47
82506;SHT30;72144;51.444;10.560;2023-10-13T15:51:48;20.85;70.46
82506;SHT30;72144;51.444;10.560;2023-10-13T15:54:14;20.84;70.50
82506;SHT30;72144;51.444;10.560;2023-10-13T15:56:46;20.81;70.50
82506;SHT30;72144;51.444;10.560;2023-10-13T15:59:12;20.80;70.52
82506;SHT30;72144;51.444;10.560;2023-10-13T16:01:37;20.80;70.50
82506;SHT30;72144;51.444;10.560;2023-10-13T16:04:07;20.74;70.38
82506;SHT30;72144;51.444;10.560;2023-10-13T16:06:45;20.74;70.17
82506;SHT30;72144;51.444;10.560;2023-10-13T16:09:19;20.73;70.17
82506;SHT30;72144;51.444;10.560;2023-10-13T16:11:51;20.68;70.08
82506;SHT30;72144;51.444;10.560;2023-10-13T16:14:17;20.67;69.91
82506;SHT30;72144;51.444;10.560;2023-10-13T16:16:49;20.63;69.89
82506;SHT30;72144;51.444;10.560;2023-10-13T16:19:19;20.63;69.84
82506;SHT30;72144;51.444;10.560;2023-10-13T16:21:47;20.63;69.78